Terminal Aerodrome Forecast
Issued by NWS Jackson, MS

Home | Current Version | Previous Version | Text Only | Print | Product List | Glossary On
Versions: 1 2 3 4 5 6 7 8 9 10 11 12 13 14
000
FTUS44 KJAN 241200 AAA
TAFJAN
TAF AMD
KJAN 241219Z 2412/2512 30010KT P6SM SCT018
     FM241330 30012G18KT P6SM SCT030
     FM242300 32004KT P6SM SKC=

USA.gov is the U.S. government's official web portal to all federal, state and local government web resources and services.